METAR Data
IDs: Format: Raw Decoded Include TAF

Data at: 2253 UTC 02 Aug 2021

ESIA 022220Z AUTO 28003KT 9999 OVC062/// 10/08 Q1008